sensor_id;sensor_type;location;lat;lon;timestamp;P1;durP1;ratioP1;P2;durP2;ratioP2
25687;SDS011;17407;51.120;3.702;2022-09-09T00:01:43;6.10;;;2.17;;
25687;SDS011;17407;51.120;3.702;2022-09-09T00:12:29;5.07;;;2.03;;
25687;SDS011;17407;51.120;3.702;2022-09-09T00:15:07;6.55;;;2.13;;
25687;SDS011;17407;51.120;3.702;2022-09-09T00:22:57;6.40;;;2.40;;
25687;SDS011;17407;51.120;3.702;2022-09-09T00:27:56;5.22;;;2.13;;
25687;SDS011;17407;51.120;3.702;2022-09-09T00:30:23;5.95;;;2.00;;
25687;SDS011;17407;51.120;3.702;2022-09-09T00:32:55;3.45;;;1.95;;
25687;SDS011;17407;51.120;3.702;2022-09-09T00:35:27;7.00;;;1.85;;
25687;SDS011;17407;51.120;3.702;2022-09-09T00:38:05;4.68;;;2.05;;
25687;SDS011;17407;51.120;3.702;2022-09-09T00:46:56;3.95;;;1.88;;
25687;SDS011;17407;51.120;3.702;2022-09-09T00:57:53;3.53;;;1.80;;
25687;SDS011;17407;51.120;3.702;2022-09-09T01:11:17;6.90;;;1.85;;
25687;SDS011;17407;51.120;3.702;2022-09-09T01:14:14;3.85;;;2.00;;
25687;SDS011;17407;51.120;3.702;2022-09-09T01:16:56;4.57;;;2.05;;
25687;SDS011;17407;51.120;3.702;2022-09-09T01:22:37;3.83;;;2.00;;
25687;SDS011;17407;51.120;3.702;2022-09-09T01:25:09;2.70;;;1.50;;
25687;SDS011;17407;51.120;3.702;2022-09-09T01:27:44;5.85;;;2.20;;
25687;SDS011;17407;51.120;3.702;2022-09-09T01:30:14;8.13;;;1.73;;
25687;SDS011;17407;51.120;3.702;2022-09-09T01:32:46;4.30;;;1.95;;
25687;SDS011;17407;51.120;3.702;2022-09-09T01:38:11;5.40;;;1.80;;
25687;SDS011;17407;51.120;3.702;2022-09-09T01:40:38;7.05;;;2.50;;
25687;SDS011;17407;51.120;3.702;2022-09-09T01:43:04;9.20;;;2.30;;
25687;SDS011;17407;51.120;3.702;2022-09-09T01:45:31;4.45;;;1.38;;
25687;SDS011;17407;51.120;3.702;2022-09-09T01:47:57;6.78;;;2.53;;
25687;SDS011;17407;51.120;3.702;2022-09-09T01:50:24;7.68;;;1.90;;
25687;SDS011;17407;51.120;3.702;2022-09-09T01:52:50;2.53;;;1.60;;
25687;SDS011;17407;51.120;3.702;2022-09-09T01:55:24;6.50;;;2.22;;
25687;SDS011;17407;51.120;3.702;2022-09-09T02:00:36;5.30;;;1.58;;
25687;SDS011;17407;51.120;3.702;2022-09-09T02:03:14;6.00;;;1.95;;
25687;SDS011;17407;51.120;3.702;2022-09-09T02:06:07;6.63;;;1.90;;
25687;SDS011;17407;51.120;3.702;2022-09-09T02:11:15;6.57;;;1.88;;
25687;SDS011;17407;51.120;3.702;2022-09-09T02:13:46;5.70;;;2.25;;
25687;SDS011;17407;51.120;3.702;2022-09-09T02:16:18;6.93;;;2.00;;
25687;SDS011;17407;51.120;3.702;2022-09-09T02:21:37;5.13;;;1.98;;
25687;SDS011;17407;51.120;3.702;2022-09-09T02:24:05;3.13;;;1.77;;
25687;SDS011;17407;51.120;3.702;2022-09-09T02:26:35;13.40;;;2.10;;
25687;SDS011;17407;51.120;3.702;2022-09-09T02:29:07;7.72;;;2.35;;
25687;SDS011;17407;51.120;3.702;2022-09-09T02:31:36;7.38;;;2.63;;
25687;SDS011;17407;51.120;3.702;2022-09-09T02:34:03;6.90;;;2.53;;
25687;SDS011;17407;51.120;3.702;2022-09-09T02:36:33;5.97;;;2.30;;
25687;SDS011;17407;51.120;3.702;2022-09-09T02:39:01;10.18;;;2.38;;
25687;SDS011;17407;51.120;3.702;2022-09-09T02:41:31;5.97;;;1.67;;
25687;SDS011;17407;51.120;3.702;2022-09-09T02:43:59;7.13;;;2.10;;
25687;SDS011;17407;51.120;3.702;2022-09-09T02:52:08;7.50;;;2.00;;
25687;SDS011;17407;51.120;3.702;2022-09-09T02:54:43;11.27;;;2.45;;
25687;SDS011;17407;51.120;3.702;2022-09-09T02:59:39;6.97;;;2.15;;
25687;SDS011;17407;51.120;3.702;2022-09-09T03:02:06;10.68;;;2.33;;
25687;SDS011;17407;51.120;3.702;2022-09-09T03:04:32;8.10;;;2.13;;
25687;SDS011;17407;51.120;3.702;2022-09-09T03:06:58;6.22;;;2.10;;
25687;SDS011;17407;51.120;3.702;2022-09-09T03:09:24;13.02;;;2.85;;
25687;SDS011;17407;51.120;3.702;2022-09-09T03:11:51;10.70;;;2.72;;
25687;SDS011;17407;51.120;3.702;2022-09-09T03:14:16;10.73;;;2.65;;
25687;SDS011;17407;51.120;3.702;2022-09-09T03:16:46;9.73;;;2.63;;
25687;SDS011;17407;51.120;3.702;2022-09-09T03:19:12;12.77;;;3.30;;
25687;SDS011;17407;51.120;3.702;2022-09-09T03:21:37;9.35;;;2.58;;
25687;SDS011;17407;51.120;3.702;2022-09-09T03:24:04;6.55;;;2.58;;
25687;SDS011;17407;51.120;3.702;2022-09-09T03:26:30;7.57;;;2.60;;
25687;SDS011;17407;51.120;3.702;2022-09-09T03:28:56;7.65;;;2.75;;
25687;SDS011;17407;51.120;3.702;2022-09-09T03:31:22;8.35;;;2.85;;
25687;SDS011;17407;51.120;3.702;2022-09-09T03:33:48;18.20;;;3.47;;
25687;SDS011;17407;51.120;3.702;2022-09-09T03:36:14;9.10;;;3.22;;
25687;SDS011;17407;51.120;3.702;2022-09-09T03:38:40;8.02;;;2.78;;
25687;SDS011;17407;51.120;3.702;2022-09-09T03:41:06;9.10;;;2.25;;
25687;SDS011;17407;51.120;3.702;2022-09-09T03:43:32;12.15;;;2.35;;
25687;SDS011;17407;51.120;3.702;2022-09-09T03:45:58;18.33;;;2.72;;
25687;SDS011;17407;51.120;3.702;2022-09-09T03:48:25;12.65;;;3.63;;
25687;SDS011;17407;51.120;3.702;2022-09-09T03:50:53;9.15;;;2.83;;
25687;SDS011;17407;51.120;3.702;2022-09-09T03:53:20;12.18;;;2.80;;
25687;SDS011;17407;51.120;3.702;2022-09-09T03:55:48;9.57;;;2.85;;
25687;SDS011;17407;51.120;3.702;2022-09-09T03:58:17;16.42;;;3.25;;
25687;SDS011;17407;51.120;3.702;2022-09-09T04:00:56;11.88;;;2.30;;
25687;SDS011;17407;51.120;3.702;2022-09-09T04:03:23;13.65;;;2.97;;
25687;SDS011;17407;51.120;3.702;2022-09-09T04:05:54;13.82;;;3.13;;
25687;SDS011;17407;51.120;3.702;2022-09-09T04:08:20;9.18;;;2.75;;
25687;SDS011;17407;51.120;3.702;2022-09-09T04:10:49;10.93;;;3.03;;
25687;SDS011;17407;51.120;3.702;2022-09-09T04:13:15;14.55;;;3.13;;
25687;SDS011;17407;51.120;3.702;2022-09-09T04:15:42;12.57;;;2.90;;
25687;SDS011;17407;51.120;3.702;2022-09-09T04:18:08;18.27;;;3.10;;
25687;SDS011;17407;51.120;3.702;2022-09-09T04:20:34;11.20;;;2.85;;
25687;SDS011;17407;51.120;3.702;2022-09-09T04:23:00;11.48;;;3.17;;
25687;SDS011;17407;51.120;3.702;2022-09-09T04:25:26;14.00;;;3.47;;
25687;SDS011;17407;51.120;3.702;2022-09-09T04:27:55;14.73;;;3.40;;
25687;SDS011;17407;51.120;3.702;2022-09-09T04:30:23;9.57;;;2.67;;
25687;SDS011;17407;51.120;3.702;2022-09-09T04:32:50;9.02;;;3.00;;
25687;SDS011;17407;51.120;3.702;2022-09-09T04:35:15;11.48;;;2.88;;
25687;SDS011;17407;51.120;3.702;2022-09-09T04:37:41;13.63;;;3.55;;
25687;SDS011;17407;51.120;3.702;2022-09-09T04:40:07;12.25;;;3.35;;
25687;SDS011;17407;51.120;3.702;2022-09-09T04:42:37;8.45;;;3.60;;
25687;SDS011;17407;51.120;3.702;2022-09-09T04:45:04;11.07;;;2.80;;
25687;SDS011;17407;51.120;3.702;2022-09-09T04:47:32;8.07;;;2.67;;
25687;SDS011;17407;51.120;3.702;2022-09-09T04:49:59;16.98;;;3.78;;
25687;SDS011;17407;51.120;3.702;2022-09-09T04:52:28;10.88;;;3.25;;
25687;SDS011;17407;51.120;3.702;2022-09-09T04:54:53;12.95;;;2.88;;
25687;SDS011;17407;51.120;3.702;2022-09-09T04:57:19;12.25;;;3.75;;
25687;SDS011;17407;51.120;3.702;2022-09-09T04:59:45;13.40;;;3.50;;
25687;SDS011;17407;51.120;3.702;2022-09-09T05:02:11;11.82;;;3.17;;
25687;SDS011;17407;51.120;3.702;2022-09-09T05:04:37;12.98;;;3.10;;
25687;SDS011;17407;51.120;3.702;2022-09-09T05:07:03;14.15;;;3.67;;
25687;SDS011;17407;51.120;3.702;2022-09-09T05:09:28;10.55;;;3.03;;
25687;SDS011;17407;51.120;3.702;2022-09-09T05:11:55;12.30;;;3.13;;
25687;SDS011;17407;51.120;3.702;2022-09-09T05:14:20;16.70;;;3.38;;
25687;SDS011;17407;51.120;3.702;2022-09-09T05:16:47;10.32;;;3.75;;
25687;SDS011;17407;51.120;3.702;2022-09-09T05:19:14;14.73;;;3.53;;
25687;SDS011;17407;51.120;3.702;2022-09-09T05:21:40;9.70;;;3.58;;
25687;SDS011;17407;51.120;3.702;2022-09-09T05:24:06;19.98;;;4.18;;
25687;SDS011;17407;51.120;3.702;2022-09-09T05:26:32;11.35;;;3.72;;
25687;SDS011;17407;51.120;3.702;2022-09-09T05:28:58;14.90;;;3.20;;
25687;SDS011;17407;51.120;3.702;2022-09-09T05:31:25;13.95;;;3.92;;
25687;SDS011;17407;51.120;3.702;2022-09-09T05:33:53;6.72;;;2.80;;
25687;SDS011;17407;51.120;3.702;2022-09-09T05:36:19;16.70;;;4.03;;
25687;SDS011;17407;51.120;3.702;2022-09-09T05:38:46;12.30;;;4.05;;
25687;SDS011;17407;51.120;3.702;2022-09-09T05:41:12;16.15;;;4.22;;
25687;SDS011;17407;51.120;3.702;2022-09-09T05:43:42;14.00;;;3.33;;
25687;SDS011;17407;51.120;3.702;2022-09-09T05:46:16;15.35;;;3.40;;
25687;SDS011;17407;51.120;3.702;2022-09-09T05:48:44;19.88;;;3.83;;
25687;SDS011;17407;51.120;3.702;2022-09-09T05:51:12;21.30;;;3.90;;
25687;SDS011;17407;51.120;3.702;2022-09-09T05:53:43;15.43;;;3.67;;
25687;SDS011;17407;51.120;3.702;2022-09-09T05:56:14;11.57;;;3.47;;
25687;SDS011;17407;51.120;3.702;2022-09-09T05:58:42;19.42;;;3.92;;
25687;SDS011;17407;51.120;3.702;2022-09-09T06:03:42;11.88;;;3.40;;
25687;SDS011;17407;51.120;3.702;2022-09-09T06:06:10;15.55;;;3.67;;
25687;SDS011;17407;51.120;3.702;2022-09-09T06:08:37;16.98;;;3.85;;
25687;SDS011;17407;51.120;3.702;2022-09-09T06:13:35;9.95;;;4.10;;
25687;SDS011;17407;51.120;3.702;2022-09-09T06:16:03;18.50;;;3.67;;
25687;SDS011;17407;51.120;3.702;2022-09-09T06:18:32;17.60;;;3.53;;
25687;SDS011;17407;51.120;3.702;2022-09-09T06:21:01;13.10;;;3.70;;
25687;SDS011;17407;51.120;3.702;2022-09-09T06:26:04;12.10;;;3.60;;
25687;SDS011;17407;51.120;3.702;2022-09-09T06:28:32;15.52;;;3.53;;
25687;SDS011;17407;51.120;3.702;2022-09-09T06:31:01;12.48;;;3.95;;
25687;SDS011;17407;51.120;3.702;2022-09-09T06:33:36;16.35;;;4.25;;
25687;SDS011;17407;51.120;3.702;2022-09-09T06:36:06;16.38;;;3.70;;
25687;SDS011;17407;51.120;3.702;2022-09-09T06:38:35;15.15;;;4.25;;
25687;SDS011;17407;51.120;3.702;2022-09-09T06:41:00;11.52;;;3.78;;
25687;SDS011;17407;51.120;3.702;2022-09-09T06:43:26;17.55;;;3.88;;
25687;SDS011;17407;51.120;3.702;2022-09-09T06:45:59;14.55;;;3.25;;
25687;SDS011;17407;51.120;3.702;2022-09-09T06:48:27;13.00;;;3.47;;
25687;SDS011;17407;51.120;3.702;2022-09-09T06:51:00;10.90;;;3.03;;
25687;SDS011;17407;51.120;3.702;2022-09-09T06:53:33;10.30;;;3.75;;
25687;SDS011;17407;51.120;3.702;2022-09-09T06:56:01;15.00;;;3.78;;
25687;SDS011;17407;51.120;3.702;2022-09-09T06:58:28;13.27;;;3.65;;
25687;SDS011;17407;51.120;3.702;2022-09-09T07:01:03;14.07;;;3.50;;
25687;SDS011;17407;51.120;3.702;2022-09-09T07:03:30;14.77;;;3.97;;
25687;SDS011;17407;51.120;3.702;2022-09-09T07:05:56;22.00;;;3.78;;
25687;SDS011;17407;51.120;3.702;2022-09-09T07:08:22;12.93;;;3.20;;
25687;SDS011;17407;51.120;3.702;2022-09-09T07:10:49;12.88;;;3.58;;
25687;SDS011;17407;51.120;3.702;2022-09-09T07:13:18;8.98;;;3.40;;
25687;SDS011;17407;51.120;3.702;2022-09-09T07:15:51;11.02;;;3.40;;
25687;SDS011;17407;51.120;3.702;2022-09-09T07:18:18;16.02;;;3.65;;
25687;SDS011;17407;51.120;3.702;2022-09-09T07:20:54;15.90;;;3.53;;
25687;SDS011;17407;51.120;3.702;2022-09-09T07:23:22;14.50;;;3.20;;
25687;SDS011;17407;51.120;3.702;2022-09-09T07:25:48;10.00;;;3.53;;
25687;SDS011;17407;51.120;3.702;2022-09-09T07:28:14;9.27;;;3.25;;
25687;SDS011;17407;51.120;3.702;2022-09-09T07:30:40;13.23;;;3.20;;
25687;SDS011;17407;51.120;3.702;2022-09-09T07:33:06;8.70;;;2.90;;
25687;SDS011;17407;51.120;3.702;2022-09-09T07:35:32;14.73;;;3.00;;
25687;SDS011;17407;51.120;3.702;2022-09-09T07:37:57;9.75;;;3.10;;
25687;SDS011;17407;51.120;3.702;2022-09-09T07:40:25;12.20;;;3.33;;
25687;SDS011;17407;51.120;3.702;2022-09-09T07:42:50;14.80;;;3.75;;
25687;SDS011;17407;51.120;3.702;2022-09-09T07:45:16;15.32;;;3.28;;
25687;SDS011;17407;51.120;3.702;2022-09-09T07:47:42;12.43;;;3.47;;
25687;SDS011;17407;51.120;3.702;2022-09-09T07:50:08;14.02;;;2.85;;
25687;SDS011;17407;51.120;3.702;2022-09-09T07:52:35;17.95;;;3.05;;
25687;SDS011;17407;51.120;3.702;2022-09-09T07:55:00;9.27;;;3.00;;
25687;SDS011;17407;51.120;3.702;2022-09-09T07:57:28;8.60;;;2.38;;
25687;SDS011;17407;51.120;3.702;2022-09-09T07:59:55;9.85;;;3.55;;
25687;SDS011;17407;51.120;3.702;2022-09-09T08:02:22;7.68;;;3.13;;
25687;SDS011;17407;51.120;3.702;2022-09-09T08:04:50;10.73;;;2.53;;
25687;SDS011;17407;51.120;3.702;2022-09-09T08:07:16;9.75;;;2.47;;
25687;SDS011;17407;51.120;3.702;2022-09-09T08:09:42;9.55;;;2.80;;
25687;SDS011;17407;51.120;3.702;2022-09-09T08:12:09;10.73;;;3.85;;
25687;SDS011;17407;51.120;3.702;2022-09-09T08:14:35;7.60;;;2.88;;
25687;SDS011;17407;51.120;3.702;2022-09-09T08:17:01;9.35;;;2.88;;
25687;SDS011;17407;51.120;3.702;2022-09-09T08:19:28;12.40;;;2.72;;
25687;SDS011;17407;51.120;3.702;2022-09-09T08:21:59;12.85;;;3.28;;
25687;SDS011;17407;51.120;3.702;2022-09-09T08:24:26;7.95;;;2.45;;
25687;SDS011;17407;51.120;3.702;2022-09-09T08:26:52;13.73;;;2.83;;
25687;SDS011;17407;51.120;3.702;2022-09-09T08:29:18;11.15;;;3.25;;
25687;SDS011;17407;51.120;3.702;2022-09-09T08:31:51;12.13;;;3.28;;
25687;SDS011;17407;51.120;3.702;2022-09-09T08:34:19;13.52;;;3.35;;
25687;SDS011;17407;51.120;3.702;2022-09-09T08:36:47;8.25;;;2.90;;
25687;SDS011;17407;51.120;3.702;2022-09-09T08:39:15;7.97;;;2.40;;
25687;SDS011;17407;51.120;3.702;2022-09-09T08:50:32;11.90;;;2.78;;
25687;SDS011;17407;51.120;3.702;2022-09-09T08:55:36;8.40;;;2.63;;
25687;SDS011;17407;51.120;3.702;2022-09-09T08:58:14;6.20;;;2.25;;
25687;SDS011;17407;51.120;3.702;2022-09-09T09:03:46;12.20;;;3.00;;
25687;SDS011;17407;51.120;3.702;2022-09-09T09:12:24;6.70;;;2.15;;
25687;SDS011;17407;51.120;3.702;2022-09-09T09:14:54;5.40;;;2.42;;
25687;SDS011;17407;51.120;3.702;2022-09-09T09:17:23;8.50;;;2.72;;
25687;SDS011;17407;51.120;3.702;2022-09-09T09:19:52;10.00;;;2.78;;
25687;SDS011;17407;51.120;3.702;2022-09-09T09:30:02;5.72;;;2.83;;
25687;SDS011;17407;51.120;3.702;2022-09-09T09:32:39;8.95;;;2.45;;
25687;SDS011;17407;51.120;3.702;2022-09-09T09:35:12;6.85;;;2.75;;
25687;SDS011;17407;51.120;3.702;2022-09-09T09:37:39;6.22;;;2.50;;
25687;SDS011;17407;51.120;3.702;2022-09-09T09:40:11;12.80;;;3.00;;
25687;SDS011;17407;51.120;3.702;2022-09-09T09:48:19;5.05;;;2.30;;
25687;SDS011;17407;51.120;3.702;2022-09-09T09:50:52;8.52;;;2.10;;
25687;SDS011;17407;51.120;3.702;2022-09-09T09:53:33;11.02;;;2.25;;
25687;SDS011;17407;51.120;3.702;2022-09-09T09:58:32;7.75;;;2.72;;
25687;SDS011;17407;51.120;3.702;2022-09-09T10:01:29;6.55;;;2.35;;
25687;SDS011;17407;51.120;3.702;2022-09-09T10:04:01;7.57;;;2.05;;
25687;SDS011;17407;51.120;3.702;2022-09-09T10:06:41;7.70;;;2.38;;
25687;SDS011;17407;51.120;3.702;2022-09-09T10:19:41;9.15;;;2.53;;
25687;SDS011;17407;51.120;3.702;2022-09-09T10:24:53;4.05;;;2.65;;
25687;SDS011;17407;51.120;3.702;2022-09-09T10:27:41;5.60;;;2.08;;
25687;SDS011;17407;51.120;3.702;2022-09-09T10:30:19;5.65;;;2.10;;
25687;SDS011;17407;51.120;3.702;2022-09-09T10:32:49;6.95;;;2.45;;
25687;SDS011;17407;51.120;3.702;2022-09-09T10:55:06;6.53;;;2.00;;
25687;SDS011;17407;51.120;3.702;2022-09-09T10:57:50;5.22;;;2.10;;
25687;SDS011;17407;51.120;3.702;2022-09-09T11:02:56;4.35;;;1.80;;
25687;SDS011;17407;51.120;3.702;2022-09-09T11:05:26;4.50;;;1.90;;
25687;SDS011;17407;51.120;3.702;2022-09-09T11:07:57;6.82;;;2.10;;
25687;SDS011;17407;51.120;3.702;2022-09-09T11:13:21;10.10;;;1.85;;
25687;SDS011;17407;51.120;3.702;2022-09-09T11:16:03;4.65;;;1.50;;
25687;SDS011;17407;51.120;3.702;2022-09-09T11:18:29;4.03;;;1.63;;
25687;SDS011;17407;51.120;3.702;2022-09-09T11:21:01;9.15;;;2.03;;
25687;SDS011;17407;51.120;3.702;2022-09-09T11:23:38;2.97;;;1.50;;
25687;SDS011;17407;51.120;3.702;2022-09-09T11:26:08;4.53;;;1.77;;
25687;SDS011;17407;51.120;3.702;2022-09-09T11:35:21;4.70;;;1.90;;
25687;SDS011;17407;51.120;3.702;2022-09-09T11:37:46;7.28;;;2.05;;
25687;SDS011;17407;51.120;3.702;2022-09-09T11:40:23;6.38;;;1.58;;
25687;SDS011;17407;51.120;3.702;2022-09-09T11:43:15;5.20;;;1.83;;
25687;SDS011;17407;51.120;3.702;2022-09-09T11:45:49;3.72;;;1.90;;
25687;SDS011;17407;51.120;3.702;2022-09-09T11:48:44;4.10;;;1.50;;
25687;SDS011;17407;51.120;3.702;2022-09-09T11:51:26;7.00;;;1.77;;
25687;SDS011;17407;51.120;3.702;2022-09-09T11:53:58;2.63;;;1.63;;
25687;SDS011;17407;51.120;3.702;2022-09-09T11:56:43;9.23;;;1.92;;
25687;SDS011;17407;51.120;3.702;2022-09-09T11:59:23;3.58;;;1.60;;
25687;SDS011;17407;51.120;3.702;2022-09-09T12:01:55;4.25;;;1.58;;
25687;SDS011;17407;51.120;3.702;2022-09-09T12:04:38;6.63;;;1.58;;
25687;SDS011;17407;51.120;3.702;2022-09-09T12:12:22;3.55;;;1.85;;
25687;SDS011;17407;51.120;3.702;2022-09-09T12:17:25;2.42;;;1.38;;
25687;SDS011;17407;51.120;3.702;2022-09-09T12:27:59;6.53;;;1.63;;
25687;SDS011;17407;51.120;3.702;2022-09-09T12:30:45;5.65;;;1.52;;
25687;SDS011;17407;51.120;3.702;2022-09-09T12:33:19;7.05;;;2.00;;
25687;SDS011;17407;51.120;3.702;2022-09-09T12:35:49;7.05;;;1.63;;
25687;SDS011;17407;51.120;3.702;2022-09-09T12:38:34;4.13;;;1.55;;
25687;SDS011;17407;51.120;3.702;2022-09-09T12:41:01;4.47;;;1.55;;
25687;SDS011;17407;51.120;3.702;2022-09-09T12:43:27;3.55;;;1.60;;
25687;SDS011;17407;51.120;3.702;2022-09-09T12:45:58;4.13;;;1.98;;
25687;SDS011;17407;51.120;3.702;2022-09-09T12:48:32;4.60;;;1.67;;
25687;SDS011;17407;51.120;3.702;2022-09-09T12:51:05;7.03;;;2.08;;
25687;SDS011;17407;51.120;3.702;2022-09-09T12:53:41;6.13;;;2.05;;
25687;SDS011;17407;51.120;3.702;2022-09-09T12:56:08;4.28;;;1.55;;
25687;SDS011;17407;51.120;3.702;2022-09-09T12:58:54;5.03;;;1.85;;
25687;SDS011;17407;51.120;3.702;2022-09-09T13:01:25;3.88;;;1.48;;
25687;SDS011;17407;51.120;3.702;2022-09-09T13:03:51;6.25;;;1.80;;
25687;SDS011;17407;51.120;3.702;2022-09-09T13:06:30;5.68;;;2.28;;
25687;SDS011;17407;51.120;3.702;2022-09-09T13:08:59;5.15;;;1.90;;
25687;SDS011;17407;51.120;3.702;2022-09-09T13:11:26;4.05;;;2.00;;
25687;SDS011;17407;51.120;3.702;2022-09-09T13:14:00;2.05;;;1.50;;
25687;SDS011;17407;51.120;3.702;2022-09-09T13:16:34;5.10;;;2.28;;
25687;SDS011;17407;51.120;3.702;2022-09-09T13:19:13;8.02;;;1.88;;
25687;SDS011;17407;51.120;3.702;2022-09-09T13:21:40;3.38;;;1.85;;
25687;SDS011;17407;51.120;3.702;2022-09-09T13:26:59;4.50;;;2.15;;
25687;SDS011;17407;51.120;3.702;2022-09-09T13:29:27;6.90;;;2.50;;
25687;SDS011;17407;51.120;3.702;2022-09-09T13:31:53;4.53;;;2.10;;
25687;SDS011;17407;51.120;3.702;2022-09-09T13:34:31;2.53;;;1.70;;
25687;SDS011;17407;51.120;3.702;2022-09-09T13:37:02;4.85;;;2.03;;
25687;SDS011;17407;51.120;3.702;2022-09-09T13:39:50;4.35;;;1.95;;
25687;SDS011;17407;51.120;3.702;2022-09-09T13:42:27;3.65;;;1.50;;
25687;SDS011;17407;51.120;3.702;2022-09-09T13:44:56;5.47;;;1.70;;
25687;SDS011;17407;51.120;3.702;2022-09-09T13:47:43;3.47;;;1.90;;
25687;SDS011;17407;51.120;3.702;2022-09-09T13:50:23;4.22;;;2.17;;
25687;SDS011;17407;51.120;3.702;2022-09-09T13:52:51;7.35;;;2.42;;
25687;SDS011;17407;51.120;3.702;2022-09-09T13:55:18;4.75;;;2.08;;
25687;SDS011;17407;51.120;3.702;2022-09-09T14:00:22;5.75;;;2.30;;
25687;SDS011;17407;51.120;3.702;2022-09-09T14:02:49;5.30;;;2.10;;
25687;SDS011;17407;51.120;3.702;2022-09-09T14:05:16;7.00;;;2.33;;
25687;SDS011;17407;51.120;3.702;2022-09-09T14:07:43;5.85;;;2.30;;
25687;SDS011;17407;51.120;3.702;2022-09-09T14:10:09;4.82;;;2.20;;
25687;SDS011;17407;51.120;3.702;2022-09-09T14:12:36;5.38;;;1.98;;
25687;SDS011;17407;51.120;3.702;2022-09-09T14:15:03;4.53;;;1.45;;
25687;SDS011;17407;51.120;3.702;2022-09-09T14:17:29;2.47;;;1.15;;
25687;SDS011;17407;51.120;3.702;2022-09-09T14:19:56;2.45;;;1.30;;
25687;SDS011;17407;51.120;3.702;2022-09-09T14:22:22;1.92;;;1.02;;
25687;SDS011;17407;51.120;3.702;2022-09-09T14:24:48;4.00;;;1.50;;
25687;SDS011;17407;51.120;3.702;2022-09-09T14:27:14;4.40;;;0.98;;
25687;SDS011;17407;51.120;3.702;2022-09-09T14:29:41;1.85;;;1.00;;
25687;SDS011;17407;51.120;3.702;2022-09-09T14:32:08;3.22;;;1.20;;
25687;SDS011;17407;51.120;3.702;2022-09-09T14:34:34;1.33;;;1.00;;
25687;SDS011;17407;51.120;3.702;2022-09-09T14:37:00;2.35;;;1.35;;
25687;SDS011;17407;51.120;3.702;2022-09-09T14:39:26;4.25;;;2.00;;
25687;SDS011;17407;51.120;3.702;2022-09-09T14:41:51;2.83;;;1.73;;
25687;SDS011;17407;51.120;3.702;2022-09-09T14:44:17;2.13;;;1.30;;
25687;SDS011;17407;51.120;3.702;2022-09-09T14:46:43;5.80;;;1.80;;
25687;SDS011;17407;51.120;3.702;2022-09-09T14:49:08;9.63;;;2.72;;
25687;SDS011;17407;51.120;3.702;2022-09-09T14:51:35;4.38;;;2.30;;
25687;SDS011;17407;51.120;3.702;2022-09-09T14:54:01;10.23;;;2.03;;
25687;SDS011;17407;51.120;3.702;2022-09-09T14:56:28;4.13;;;2.08;;
25687;SDS011;17407;51.120;3.702;2022-09-09T14:58:56;3.60;;;2.10;;
25687;SDS011;17407;51.120;3.702;2022-09-09T15:01:23;5.38;;;2.35;;
25687;SDS011;17407;51.120;3.702;2022-09-09T15:03:55;5.72;;;2.20;;
25687;SDS011;17407;51.120;3.702;2022-09-09T15:06:25;4.65;;;2.10;;
25687;SDS011;17407;51.120;3.702;2022-09-09T15:08:54;6.60;;;2.45;;
25687;SDS011;17407;51.120;3.702;2022-09-09T15:11:23;5.00;;;2.22;;
25687;SDS011;17407;51.120;3.702;2022-09-09T15:13:51;5.43;;;2.28;;
25687;SDS011;17407;51.120;3.702;2022-09-09T15:16:18;6.20;;;2.40;;
25687;SDS011;17407;51.120;3.702;2022-09-09T15:18:45;6.82;;;2.95;;
25687;SDS011;17407;51.120;3.702;2022-09-09T15:21:12;5.15;;;2.67;;
25687;SDS011;17407;51.120;3.702;2022-09-09T15:23:40;8.07;;;2.90;;
25687;SDS011;17407;51.120;3.702;2022-09-09T15:26:07;4.32;;;2.42;;
25687;SDS011;17407;51.120;3.702;2022-09-09T15:28:34;5.30;;;3.00;;
25687;SDS011;17407;51.120;3.702;2022-09-09T15:31:02;6.78;;;3.58;;
25687;SDS011;17407;51.120;3.702;2022-09-09T15:33:32;5.07;;;3.03;;
25687;SDS011;17407;51.120;3.702;2022-09-09T15:35:58;5.97;;;2.95;;
25687;SDS011;17407;51.120;3.702;2022-09-09T15:38:24;5.18;;;3.15;;
25687;SDS011;17407;51.120;3.702;2022-09-09T15:40:53;7.18;;;3.78;;
25687;SDS011;17407;51.120;3.702;2022-09-09T15:43:20;5.63;;;3.10;;
25687;SDS011;17407;51.120;3.702;2022-09-09T15:45:49;7.70;;;3.00;;
25687;SDS011;17407;51.120;3.702;2022-09-09T15:48:23;9.25;;;2.97;;
25687;SDS011;17407;51.120;3.702;2022-09-09T15:51:04;7.80;;;2.60;;
25687;SDS011;17407;51.120;3.702;2022-09-09T15:53:30;5.60;;;2.45;;
25687;SDS011;17407;51.120;3.702;2022-09-09T15:55:57;6.03;;;2.92;;
25687;SDS011;17407;51.120;3.702;2022-09-09T15:58:24;7.47;;;3.13;;
25687;SDS011;17407;51.120;3.702;2022-09-09T16:00:49;4.97;;;2.63;;
25687;SDS011;17407;51.120;3.702;2022-09-09T16:03:16;4.65;;;2.65;;
25687;SDS011;17407;51.120;3.702;2022-09-09T16:05:41;5.50;;;3.08;;
25687;SDS011;17407;51.120;3.702;2022-09-09T16:08:08;4.25;;;2.60;;
25687;SDS011;17407;51.120;3.702;2022-09-09T16:10:34;5.95;;;2.70;;
25687;SDS011;17407;51.120;3.702;2022-09-09T16:12:59;5.63;;;2.40;;
25687;SDS011;17407;51.120;3.702;2022-09-09T16:15:25;5.95;;;2.60;;
25687;SDS011;17407;51.120;3.702;2022-09-09T16:17:53;8.65;;;2.78;;
25687;SDS011;17407;51.120;3.702;2022-09-09T16:20:18;4.13;;;2.17;;
25687;SDS011;17407;51.120;3.702;2022-09-09T16:22:45;3.83;;;2.58;;
25687;SDS011;17407;51.120;3.702;2022-09-09T16:25:11;3.92;;;2.45;;
25687;SDS011;17407;51.120;3.702;2022-09-09T16:27:36;6.32;;;2.80;;
25687;SDS011;17407;51.120;3.702;2022-09-09T16:30:02;4.82;;;2.33;;
25687;SDS011;17407;51.120;3.702;2022-09-09T16:32:31;4.78;;;2.85;;
25687;SDS011;17407;51.120;3.702;2022-09-09T16:34:56;8.18;;;3.47;;
25687;SDS011;17407;51.120;3.702;2022-09-09T16:37:22;6.00;;;3.35;;
25687;SDS011;17407;51.120;3.702;2022-09-09T16:39:48;6.15;;;3.15;;
25687;SDS011;17407;51.120;3.702;2022-09-09T16:42:13;7.68;;;2.88;;
25687;SDS011;17407;51.120;3.702;2022-09-09T16:44:39;8.20;;;3.40;;
25687;SDS011;17407;51.120;3.702;2022-09-09T16:47:04;6.60;;;3.17;;
25687;SDS011;17407;51.120;3.702;2022-09-09T16:49:30;7.65;;;3.83;;
25687;SDS011;17407;51.120;3.702;2022-09-09T16:51:57;6.63;;;3.85;;
25687;SDS011;17407;51.120;3.702;2022-09-09T16:54:23;5.65;;;3.80;;
25687;SDS011;17407;51.120;3.702;2022-09-09T16:56:51;5.22;;;3.60;;
25687;SDS011;17407;51.120;3.702;2022-09-09T16:59:18;5.00;;;3.10;;
25687;SDS011;17407;51.120;3.702;2022-09-09T17:01:46;5.60;;;3.20;;
25687;SDS011;17407;51.120;3.702;2022-09-09T17:04:17;4.20;;;3.05;;
25687;SDS011;17407;51.120;3.702;2022-09-09T17:06:49;9.68;;;3.58;;
25687;SDS011;17407;51.120;3.702;2022-09-09T17:09:16;7.07;;;3.80;;
25687;SDS011;17407;51.120;3.702;2022-09-09T17:11:43;4.50;;;3.08;;
25687;SDS011;17407;51.120;3.702;2022-09-09T17:14:11;4.45;;;3.70;;
25687;SDS011;17407;51.120;3.702;2022-09-09T17:16:40;9.40;;;3.85;;
25687;SDS011;17407;51.120;3.702;2022-09-09T17:19:06;7.03;;;3.85;;
25687;SDS011;17407;51.120;3.702;2022-09-09T17:21:33;6.45;;;3.13;;
25687;SDS011;17407;51.120;3.702;2022-09-09T17:23:59;5.50;;;3.05;;
25687;SDS011;17407;51.120;3.702;2022-09-09T17:26:27;7.70;;;3.08;;
25687;SDS011;17407;51.120;3.702;2022-09-09T17:28:54;7.40;;;3.22;;
25687;SDS011;17407;51.120;3.702;2022-09-09T17:31:22;8.05;;;3.05;;
25687;SDS011;17407;51.120;3.702;2022-09-09T17:33:50;5.03;;;2.58;;
25687;SDS011;17407;51.120;3.702;2022-09-09T17:36:24;6.80;;;2.88;;
25687;SDS011;17407;51.120;3.702;2022-09-09T17:38:52;7.97;;;2.33;;
25687;SDS011;17407;51.120;3.702;2022-09-09T17:41:23;4.25;;;2.63;;
25687;SDS011;17407;51.120;3.702;2022-09-09T17:43:51;6.32;;;2.53;;
25687;SDS011;17407;51.120;3.702;2022-09-09T17:46:19;6.80;;;2.53;;
25687;SDS011;17407;51.120;3.702;2022-09-09T17:48:49;3.35;;;2.30;;
25687;SDS011;17407;51.120;3.702;2022-09-09T17:51:18;6.95;;;2.85;;